Time;durP1;ratioP1;P1;durP2;ratioP2;P2;SDS_P1;SDS_P2;PMS_P1;PMS_P2;Temp;Humidity;BMP_temperature;BMP_pressure;BME280_temperature;BME280_humidity;BME280_pressure;Samples;Min_cycle;Max_cycle;Signal;HPM_P1;HPM_P2
2022/02/16 00:01:15;;;;;;;1.23;0.75;;;;;;;5.11;99.67;99778.94;4970068;28;20076;-86
2022/02/16 00:03:42;;;;;;;3.58;1.30;;;;;;;5.16;99.83;99780.66;4996908;28;20064;-85
2022/02/16 00:06:09;;;;;;;1.42;1.00;;;;;;;5.17;99.73;99772.00;4997465;28;20049;-86
2022/02/16 00:08:36;;;;;;;2.47;0.93;;;;;;;5.19;99.73;99760.75;4990953;28;20103;-86
2022/02/16 00:11:03;;;;;;;1.30;0.68;;;;;;;5.20;99.75;99765.09;4962254;28;20409;-86
2022/02/16 00:13:30;;;;;;;4.97;1.42;;;;;;;5.23;99.70;99757.28;4990437;28;20068;-86
2022/02/16 00:15:57;;;;;;;2.83;0.93;;;;;;;5.25;99.30;99767.66;4989365;28;20108;-87
2022/02/16 00:18:24;;;;;;;2.25;0.68;;;;;;;5.27;99.36;99763.34;5001567;28;20053;-86
2022/02/16 00:20:51;;;;;;;2.85;1.45;;;;;;;5.29;99.22;99759.88;4991540;28;20053;-85
2022/02/16 00:23:18;;;;;;;2.03;0.82;;;;;;;5.33;98.74;99747.75;5002008;28;20053;-87
2022/02/16 00:25:45;;;;;;;3.65;0.90;;;;;;;5.35;98.41;99748.63;4993877;28;20064;-87
2022/02/16 00:28:17;;;;;;;3.42;1.58;;;;;;;5.40;97.97;99746.88;4995189;28;20051;-88
2022/02/16 00:30:45;;;;;;;0.77;0.75;;;;;;;5.44;97.94;99750.34;5008284;28;20064;-86
2022/02/16 00:33:12;;;;;;;2.45;1.00;;;;;;;5.43;97.33;99733.03;4983591;28;20419;-88
2022/02/16 00:35:41;;;;;;;2.20;0.70;;;;;;;5.45;97.74;99739.09;4996488;28;20697;-86
2022/02/16 00:38:14;;;;;;;1.45;0.75;;;;;;;5.49;97.21;99739.94;4979135;28;20080;-87
2022/02/16 00:40:41;;;;;;;0.98;0.88;;;;;;;5.49;97.48;99726.94;5010565;28;20132;-86
2022/02/16 00:43:10;;;;;;;0.75;0.73;;;;;;;5.50;97.20;99728.69;4992181;28;20058;-87
2022/02/16 00:45:37;;;;;;;1.88;0.73;;;;;;;5.54;96.91;99717.41;5012876;28;20068;-86
2022/02/16 00:48:07;;;;;;;1.25;0.57;;;;;;;5.53;97.14;99726.94;5014767;28;20049;-85
2022/02/16 00:50:39;;;;;;;1.33;0.93;;;;;;;5.56;96.98;99726.91;4990677;28;20056;-87
2022/02/16 00:53:06;;;;;;;2.47;0.50;;;;;;;5.57;96.97;99717.41;5011764;28;20100;-87
2022/02/16 00:55:36;;;;;;;0.65;0.65;;;;;;;5.59;96.92;99713.06;4991477;28;20077;-87
2022/02/16 00:58:06;;;;;;;1.20;0.93;;;;;;;5.61;96.79;99717.38;4995170;28;20056;-85
2022/02/16 01:00:35;;;;;;;1.73;0.88;;;;;;;5.59;97.22;99718.25;4972740;28;21370;-88
2022/02/16 01:03:02;;;;;;;2.28;0.60;;;;;;;5.59;96.93;99715.66;5012970;28;20049;-85
2022/02/16 01:05:38;;;;;;;2.40;0.80;;;;;;;5.58;97.32;99704.44;4995512;28;20048;-85
2022/02/16 01:08:11;;;;;;;4.95;1.13;;;;;;;5.62;96.96;99705.28;4984213;28;20131;-88
2022/02/16 01:10:39;;;;;;;4.22;0.93;;;;;;;5.63;96.78;99700.09;4988000;28;20089;-85
2022/02/16 01:13:06;;;;;;;1.13;0.95;;;;;;;5.62;97.31;99697.50;5003820;28;20041;-87
2022/02/16 01:15:33;;;;;;;1.20;0.70;;;;;;;5.66;96.86;99695.72;4995616;28;20053;-86
2022/02/16 01:17:59;;;;;;;1.45;0.57;;;;;;;5.64;96.93;99698.34;4982532;28;20104;-87
2022/02/16 01:20:30;;;;;;;0.75;0.30;;;;;;;5.69;97.17;99686.19;4986394;28;20045;-87
2022/02/16 01:22:59;;;;;;;4.80;1.65;;;;;;;5.69;97.19;99687.94;4992794;28;20190;-85
2022/02/16 01:25:28;;;;;;;0.70;0.70;;;;;;;5.71;96.85;99675.81;4985427;28;20052;-86
2022/02/16 01:27:54;;;;;;;0.82;0.60;;;;;;;5.74;97.07;99673.22;4977995;28;20057;-85
2022/02/16 01:30:21;;;;;;;1.75;0.55;;;;;;;5.72;96.81;99674.94;4984746;28;20057;-86
2022/02/16 01:32:59;;;;;;;1.52;0.47;;;;;;;5.71;97.08;99658.50;4988143;28;20476;-86
2022/02/16 01:35:26;;;;;;;2.38;0.80;;;;;;;5.72;96.99;99655.03;4973513;28;20053;-86
2022/02/16 01:37:52;;;;;;;1.10;0.80;;;;;;;5.70;97.35;99656.78;4987665;28;20041;-86
2022/02/16 01:40:19;;;;;;;1.00;0.90;;;;;;;5.69;97.17;99646.41;4989463;28;20526;-86
2022/02/16 01:42:46;;;;;;;1.27;0.80;;;;;;;5.70;97.54;99641.19;5006342;28;20045;-87
2022/02/16 01:45:14;;;;;;;2.53;0.70;;;;;;;5.70;97.52;99638.59;4990262;28;20081;-85
2022/02/16 01:47:43;;;;;;;1.80;0.80;;;;;;;5.69;97.64;99649.84;4991225;28;20076;-86
2022/02/16 01:50:11;;;;;;;1.20;0.80;;;;;;;5.70;98.06;99632.56;4983516;28;20053;-86
2022/02/16 01:52:45;;;;;;;1.63;1.50;;;;;;;5.71;98.27;99624.75;4977065;28;20061;-87
2022/02/16 01:55:13;;;;;;;1.15;0.57;;;;;;;5.74;98.23;99626.47;4974172;28;20056;-87
2022/02/16 01:57:44;;;;;;;1.05;0.50;;;;;;;5.76;98.00;99623.00;4990056;28;20112;-87
2022/02/16 02:00:12;;;;;;;0.68;0.68;;;;;;;5.76;97.99;99627.31;4986382;28;20057;-86
2022/02/16 02:02:38;;;;;;;1.23;0.60;;;;;;;5.79;97.85;99625.56;5009543;28;20063;-86
2022/02/16 02:05:08;;;;;;;0.95;0.40;;;;;;;5.79;98.22;99622.97;4993808;28;20042;-85
2022/02/16 02:07:40;;;;;;;1.10;0.68;;;;;;;5.80;97.93;99611.69;4971909;28;20049;-86
2022/02/16 02:10:08;;;;;;;2.70;1.17;;;;;;;5.79;98.08;99615.16;4991266;28;20072;-87
2022/02/16 02:12:46;;;;;;;0.57;0.30;;;;;;;5.80;98.07;99603.03;5001114;28;20122;-86
2022/02/16 02:15:13;;;;;;;0.90;0.65;;;;;;;5.81;97.43;99591.78;4978860;28;20046;-85
2022/02/16 02:17:45;;;;;;;0.70;0.70;;;;;;;5.80;97.80;99593.53;4993128;28;20062;-85
2022/02/16 02:20:23;;;;;;;0.47;0.47;;;;;;;5.80;98.10;99579.66;4985995;28;20049;-87
2022/02/16 02:22:52;;;;;;;1.90;1.02;;;;;;;5.82;97.75;99584.88;4972878;28;20060;-84
2022/02/16 02:25:19;;;;;;;2.35;1.05;;;;;;;5.80;97.77;99574.47;4971819;28;20053;-86
2022/02/16 02:27:46;;;;;;;2.35;0.43;;;;;;;5.81;97.86;99573.59;5007332;28;20423;-87
2022/02/16 02:30:14;;;;;;;3.15;0.52;;;;;;;5.83;97.98;99573.59;4969398;28;20840;-87
2022/02/16 02:32:42;;;;;;;0.40;0.40;;;;;;;5.82;98.08;99556.31;4975505;28;20049;-85
2022/02/16 02:35:11;;;;;;;0.90;0.60;;;;;;;5.81;97.68;99550.22;4990921;28;20049;-85
2022/02/16 02:37:46;;;;;;;0.52;0.50;;;;;;;5.82;97.62;99545.91;4966864;28;20061;-85
2022/02/16 02:40:13;;;;;;;7.22;1.00;;;;;;;5.84;97.71;99550.22;4960291;28;20788;-87
2022/02/16 02:42:42;;;;;;;3.30;0.85;;;;;;;5.83;97.83;99552.81;4974806;28;20053;-86
2022/02/16 02:45:11;;;;;;;1.13;0.30;;;;;;;5.82;98.06;99553.72;4992219;28;20051;-85
2022/02/16 02:47:38;;;;;;;2.47;0.50;;;;;;;5.82;97.84;99536.38;5008899;28;20069;-85
2022/02/16 02:50:07;;;;;;;1.60;0.88;;;;;;;5.83;98.03;99547.59;4986765;28;20065;-85
2022/02/16 02:52:36;;;;;;;0.43;0.22;;;;;;;5.86;97.88;99551.06;4991329;28;20107;-86
2022/02/16 02:55:04;;;;;;;0.32;0.32;;;;;;;5.85;98.19;99525.94;4987827;28;20049;-87
2022/02/16 02:57:31;;;;;;;1.17;0.68;;;;;;;5.89;97.79;99537.19;5008480;28;20445;-87
2022/02/16 02:59:59;;;;;;;3.05;1.40;;;;;;;5.88;97.75;99531.13;4972621;28;20069;-86
2022/02/16 03:02:27;;;;;;;0.73;0.28;;;;;;;5.90;97.84;99518.13;4976844;28;20144;-86
2022/02/16 03:04:53;;;;;;;0.40;0.32;;;;;;;5.89;97.99;99530.28;4982753;28;20050;-87
2022/02/16 03:07:22;;;;;;;1.15;0.45;;;;;;;5.89;97.84;99526.78;5005500;28;20045;-85
2022/02/16 03:09:49;;;;;;;0.52;0.30;;;;;;;5.91;98.05;99523.31;4989001;28;20292;-87
2022/02/16 03:12:16;;;;;;;1.00;0.50;;;;;;;5.88;98.47;99520.75;4985382;28;20049;-85
2022/02/16 03:14:42;;;;;;;0.55;0.43;;;;;;;5.91;98.50;99505.13;4995462;28;20123;-84
2022/02/16 03:17:09;;;;;;;0.60;0.40;;;;;;;5.87;98.69;99502.59;4979595;28;20578;-88
2022/02/16 03:19:36;;;;;;;1.73;1.63;;;;;;;5.86;98.93;99506.91;5007155;28;20056;-87
2022/02/16 03:22:04;;;;;;;0.85;0.20;;;;;;;5.86;99.00;99501.72;4977884;28;20184;-86
2022/02/16 03:24:31;;;;;;;1.02;0.50;;;;;;;5.88;98.91;99491.31;4989264;28;20037;-87
2022/02/16 03:26:59;;;;;;;0.43;0.38;;;;;;;5.84;98.57;99487.88;4995931;28;20098;-87
2022/02/16 03:29:26;;;;;;;2.17;0.40;;;;;;;5.83;98.89;99483.56;4983124;28;20123;-86
2022/02/16 03:31:53;;;;;;;0.30;0.25;;;;;;;5.83;98.67;99486.16;4999407;28;20133;-86
2022/02/16 03:34:19;;;;;;;0.73;0.40;;;;;;;5.85;98.35;99488.75;4999484;28;20056;-85
2022/02/16 03:36:46;;;;;;;0.57;0.50;;;;;;;5.85;98.42;99479.19;5006161;28;20046;-85
2022/02/16 03:39:12;;;;;;;1.25;0.60;;;;;;;5.87;98.18;99487.84;4978048;28;20140;-84
2022/02/16 03:41:39;;;;;;;0.40;0.30;;;;;;;5.89;97.97;99480.94;4975173;28;20041;-85
2022/02/16 03:44:06;;;;;;;0.75;0.60;;;;;;;5.88;97.79;99480.91;4985933;28;20045;-85
2022/02/16 03:46:33;;;;;;;1.00;0.40;;;;;;;5.90;97.91;99480.03;4982544;28;20118;-86
2022/02/16 03:49:02;;;;;;;1.27;0.40;;;;;;;5.91;97.60;99483.50;5013834;28;20064;-87
2022/02/16 03:51:33;;;;;;;1.85;0.60;;;;;;;5.91;97.46;99463.56;4977375;28;20049;-85
2022/02/16 03:54:00;;;;;;;0.30;0.30;;;;;;;5.92;97.54;99472.25;4993316;28;20057;-85
2022/02/16 03:56:29;;;;;;;0.68;0.65;;;;;;;5.96;96.97;99468.75;4995380;28;20037;-86
2022/02/16 03:58:57;;;;;;;0.60;0.47;;;;;;;5.94;97.41;99460.09;4997846;28;20038;-86
2022/02/16 04:01:31;;;;;;;0.45;0.45;;;;;;;5.95;97.34;99465.25;5005873;28;20041;-87
2022/02/16 04:03:58;;;;;;;1.85;0.57;;;;;;;5.94;97.31;99460.97;4986353;28;20083;-86
2022/02/16 04:06:28;;;;;;;5.47;0.55;;;;;;;5.95;97.40;99462.66;5006807;28;20042;-86
2022/02/16 04:08:57;;;;;;;1.45;0.50;;;;;;;5.96;97.27;99459.19;4997082;28;20066;-85
2022/02/16 04:11:27;;;;;;;0.52;0.52;;;;;;;5.96;97.24;99458.34;4976560;28;20455;-86
2022/02/16 04:13:55;;;;;;;1.23;0.38;;;;;;;6.00;96.81;99441.88;5008032;28;20661;-86
2022/02/16 04:16:25;;;;;;;0.60;0.60;;;;;;;5.99;96.97;99454.88;4987551;28;20056;-87
2022/02/16 04:18:54;;;;;;;2.13;0.60;;;;;;;5.99;96.69;99441.91;5004553;28;20049;-86
2022/02/16 04:21:24;;;;;;;2.05;0.63;;;;;;;5.96;97.10;99438.41;5007079;28;20045;-85
2022/02/16 04:23:54;;;;;;;2.85;0.73;;;;;;;5.97;97.52;99431.47;4988597;28;20041;-88
2022/02/16 04:26:21;;;;;;;0.45;0.45;;;;;;;5.97;97.72;99416.75;5008921;28;20042;-86
2022/02/16 04:28:51;;;;;;;2.92;1.02;;;;;;;5.95;98.06;99422.84;5030207;28;20034;-85
2022/02/16 04:31:18;;;;;;;0.73;0.73;;;;;;;5.94;98.55;99427.19;4982634;28;20091;-87
2022/02/16 04:33:45;;;;;;;0.88;0.88;;;;;;;5.94;98.53;99415.94;5002137;28;20045;-85
2022/02/16 04:36:25;;;;;;;0.80;0.80;;;;;;;5.93;99.28;99415.09;4991675;28;20056;-87
2022/02/16 04:38:56;;;;;;;1.02;0.47;;;;;;;5.93;99.31;99411.59;5002169;28;20049;-86
2022/02/16 04:41:27;;;;;;;0.88;0.82;;;;;;;5.95;99.43;99405.50;5001861;28;20057;-86
2022/02/16 04:43:54;;;;;;;2.10;1.08;;;;;;;5.99;99.43;99392.53;4964391;28;21524;-87
2022/02/16 04:46:22;;;;;;;0.70;0.70;;;;;;;5.95;99.34;99395.13;4999480;28;20872;-87
2022/02/16 04:48:57;;;;;;;1.80;0.90;;;;;;;5.94;99.87;99387.34;4994489;28;20052;-87
2022/02/16 04:51:24;;;;;;;0.82;0.65;;;;;;;5.95;99.65;99389.09;5016553;28;20148;-87
2022/02/16 04:53:51;;;;;;;0.60;0.60;;;;;;;5.93;100.00;99378.72;4991996;28;20049;-87
2022/02/16 04:56:20;;;;;;;0.45;0.32;;;;;;;5.95;99.50;99387.34;4963015;28;20123;-87
2022/02/16 04:58:47;;;;;;;0.70;0.70;;;;;;;5.94;100.00;99369.16;4969325;28;20173;-85
2022/02/16 05:01:20;;;;;;;0.50;0.50;;;;;;;5.95;100.00;99370.91;4972399;28;20519;-86
2022/02/16 05:03:48;;;;;;;1.88;0.65;;;;;;;5.95;100.00;99370.91;5000053;28;20112;-87
2022/02/16 05:06:15;;;;;;;0.50;0.50;;;;;;;5.96;100.00;99357.03;4992707;28;20774;-86
2022/02/16 05:08:44;;;;;;;0.60;0.60;;;;;;;5.95;100.00;99355.31;4987839;28;20052;-85
2022/02/16 05:11:11;;;;;;;1.20;1.08;;;;;;;5.97;100.00;99346.63;5016135;28;20053;-85
2022/02/16 05:13:40;;;;;;;0.60;0.60;;;;;;;5.95;100.00;99343.19;5004340;28;20112;-85
2022/02/16 05:16:16;;;;;;;0.40;0.40;;;;;;;5.94;100.00;99346.69;4994258;28;21983;-84
2022/02/16 05:18:43;;;;;;;0.77;0.65;;;;;;;5.95;100.00;99344.94;4991826;28;20053;-84
2022/02/16 05:21:09;;;;;;;0.40;0.38;;;;;;;5.94;100.00;99340.59;4986133;28;20060;-85
2022/02/16 05:23:48;;;;;;;0.88;0.80;;;;;;;5.94;100.00;99333.69;5002748;28;20123;-85
2022/02/16 05:26:15;;;;;;;0.47;0.40;;;;;;;5.96;100.00;99325.88;4995797;28;20045;-86
2022/02/16 05:28:42;;;;;;;1.05;0.65;;;;;;;5.95;100.00;99312.00;4996639;28;20037;-87
2022/02/16 05:31:09;;;;;;;0.57;0.57;;;;;;;5.96;100.00;99308.53;5005461;28;20053;-87
2022/02/16 05:33:36;;;;;;;0.90;0.60;;;;;;;5.96;100.00;99310.28;4996512;28;20037;-88
2022/02/16 05:36:05;;;;;;;0.40;0.40;;;;;;;5.97;100.00;99304.19;4994349;28;20049;-87
2022/02/16 05:38:33;;;;;;;0.60;0.60;;;;;;;6.00;100.00;99301.59;4979957;28;21069;-86
2022/02/16 05:41:01;;;;;;;0.45;0.30;;;;;;;6.01;100.00;99300.75;4992045;28;20057;-87
2022/02/16 05:43:33;;;;;;;0.20;0.20;;;;;;;6.05;100.00;99297.22;5012417;28;20049;-85
2022/02/16 05:46:00;;;;;;;1.08;0.60;;;;;;;6.06;100.00;99283.34;4998031;28;21084;-87
2022/02/16 05:48:26;;;;;;;0.95;0.38;;;;;;;6.10;100.00;99269.44;4987877;28;20125;-85
2022/02/16 05:50:53;;;;;;;0.63;0.30;;;;;;;6.11;100.00;99263.38;4995830;28;20182;-87
2022/02/16 05:53:20;;;;;;;1.15;0.75;;;;;;;6.13;100.00;99265.94;4988293;28;20991;-88
2022/02/16 05:55:56;;;;;;;2.38;0.68;;;;;;;6.15;100.00;99253.78;4983564;28;20042;-86
2022/02/16 05:58:23;;;;;;;0.80;0.32;;;;;;;6.18;100.00;99245.06;5009754;28;20045;-88
2022/02/16 06:00:51;;;;;;;1.50;0.50;;;;;;;6.17;100.00;99236.44;4989154;28;20050;-87
2022/02/16 06:03:18;;;;;;;0.40;0.40;;;;;;;6.19;100.00;99236.41;4996712;28;20048;-86
2022/02/16 06:05:45;;;;;;;0.63;0.38;;;;;;;6.20;100.00;99227.75;4975479;28;20045;-88
2022/02/16 06:08:12;;;;;;;0.40;0.38;;;;;;;6.23;100.00;99228.56;4993671;28;20048;-88
2022/02/16 06:10:48;;;;;;;0.50;0.50;;;;;;;6.23;100.00;99222.50;5012421;28;20096;-86
2022/02/16 06:13:15;;;;;;;0.40;0.40;;;;;;;6.25;100.00;99226.78;4991460;28;20064;-88
2022/02/16 06:15:43;;;;;;;2.30;0.93;;;;;;;6.26;100.00;99217.25;4994910;28;20061;-87
2022/02/16 06:18:10;;;;;;;0.20;0.20;;;;;;;6.27;100.00;99199.03;4987152;28;20381;-87
2022/02/16 06:20:37;;;;;;;0.35;0.35;;;;;;;6.27;100.00;99198.16;4991841;28;20595;-87
2022/02/16 06:23:07;;;;;;;0.32;0.32;;;;;;;6.27;100.00;99204.25;4989592;28;20988;-87
2022/02/16 06:25:34;;;;;;;0.60;0.60;;;;;;;6.28;100.00;99199.91;4981147;28;20057;-87
2022/02/16 06:28:03;;;;;;;2.70;0.60;;;;;;;6.32;100.00;99192.91;4994336;28;20049;-87
2022/02/16 06:30:31;;;;;;;0.95;0.30;;;;;;;6.33;100.00;99200.69;4990172;28;20041;-87
2022/02/16 06:32:59;;;;;;;0.30;0.30;;;;;;;6.32;100.00;99188.56;4979181;28;20155;-87
2022/02/16 06:35:26;;;;;;;1.15;0.40;;;;;;;6.35;100.00;99195.47;5002115;28;20037;-87
2022/02/16 06:37:53;;;;;;;1.95;0.35;;;;;;;6.37;100.00;99189.34;5010907;28;20575;-87
2022/02/16 06:40:20;;;;;;;1.58;0.60;;;;;;;6.39;100.00;99179.81;5012053;28;20057;-87
2022/02/16 06:42:47;;;;;;;0.43;0.43;;;;;;;6.40;100.00;99186.72;4956016;28;20081;-87
2022/02/16 06:45:14;;;;;;;0.60;0.60;;;;;;;6.41;100.00;99159.88;5010103;28;20041;-87
2022/02/16 06:47:41;;;;;;;1.55;1.10;;;;;;;6.45;100.00;99164.13;5004958;28;20046;-87
2022/02/16 06:50:08;;;;;;;1.38;0.75;;;;;;;6.49;100.00;99177.06;4987871;28;20096;-87
2022/02/16 06:52:35;;;;;;;3.50;0.55;;;;;;;6.49;99.50;99172.72;4999005;28;20101;-87
2022/02/16 06:55:02;;;;;;;0.65;0.50;;;;;;;6.51;99.28;99170.94;4971757;28;20155;-87
2022/02/16 06:57:28;;;;;;;0.73;0.60;;;;;;;6.51;99.65;99168.34;4998211;28;20211;-87
2022/02/16 06:59:55;;;;;;;1.40;0.40;;;;;;;6.51;99.39;99155.34;4963390;28;20065;-87
2022/02/16 07:02:22;;;;;;;0.40;0.40;;;;;;;6.55;99.57;99153.56;4981792;28;20057;-87
2022/02/16 07:07:32;;;;;;;1.08;0.30;;;;;;;6.61;99.26;99112.72;5004176;28;20056;-87
2022/02/16 07:10:09;;;;;;;0.88;0.50;;;;;;;6.64;98.68;99106.59;4983037;28;20060;-87
2022/02/16 07:12:40;;;;;;;1.00;0.68;;;;;;;6.66;98.57;99114.38;4988667;28;20479;-86
2022/02/16 07:15:17;;;;;;;1.10;0.52;;;;;;;6.69;98.52;99104.78;4989873;28;20053;-87
2022/02/16 07:17:44;;;;;;;0.40;0.40;;;;;;;6.73;97.68;99116.00;4968279;28;20056;-87
2022/02/16 07:20:16;;;;;;;1.55;0.60;;;;;;;6.79;97.34;99116.72;5010937;28;20061;-86
2022/02/16 07:22:46;;;;;;;1.00;0.70;;;;;;;6.81;97.01;99103.69;4977031;28;20068;-86
2022/02/16 07:25:15;;;;;;;0.85;0.40;;;;;;;6.84;96.61;99100.19;5010916;28;21134;-86
2022/02/16 07:27:43;;;;;;;2.63;0.45;;;;;;;6.86;96.68;99101.03;4996543;28;20076;-88
2022/02/16 07:30:13;;;;;;;0.40;0.40;;;;;;;6.87;96.71;99098.38;4973482;28;20496;-86
2022/02/16 07:32:43;;;;;;;0.20;0.20;;;;;;;6.91;96.15;99089.63;5007936;28;20050;-84
2022/02/16 07:35:15;;;;;;;0.35;0.35;;;;;;;6.93;96.70;99087.00;5004233;28;20057;-87
2022/02/16 07:37:42;;;;;;;0.57;0.43;;;;;;;6.92;97.25;99086.16;4986385;28;20336;-86
2022/02/16 07:40:10;;;;;;;0.38;0.38;;;;;;;6.91;98.04;99078.34;4973680;28;20100;-88
2022/02/16 07:42:41;;;;;;;0.38;0.38;;;;;;;6.85;99.23;99078.50;4959147;28;20099;-86
2022/02/16 07:45:09;;;;;;;0.75;0.30;;;;;;;6.75;100.00;99064.78;4982006;28;20155;-87
2022/02/16 07:47:37;;;;;;;0.40;0.40;;;;;;;6.68;100.00;99065.81;4994678;28;20056;-87
2022/02/16 07:50:06;;;;;;;0.50;0.50;;;;;;;6.60;100.00;99053.78;4979632;28;20831;-87
2022/02/16 07:52:38;;;;;;;1.55;0.40;;;;;;;6.52;100.00;99041.81;4993975;28;20109;-86
2022/02/16 07:55:06;;;;;;;0.68;0.68;;;;;;;6.42;100.00;99034.19;5013537;28;20049;-86
2022/02/16 07:57:34;;;;;;;0.55;0.40;;;;;;;6.33;100.00;99036.09;4983139;28;20042;-87
2022/02/16 08:00:02;;;;;;;0.77;0.77;;;;;;;6.27;100.00;99029.25;4980990;28;20095;-87
2022/02/16 08:02:30;;;;;;;1.35;0.57;;;;;;;6.24;100.00;99032.75;4996233;28;20132;-87
2022/02/16 08:04:59;;;;;;;0.55;0.40;;;;;;;6.20;100.00;99023.31;4993744;28;20049;-86
2022/02/16 08:07:26;;;;;;;2.15;0.65;;;;;;;6.21;100.00;99017.25;4999710;28;20046;-88
2022/02/16 08:09:53;;;;;;;0.32;0.32;;;;;;;6.21;100.00;99012.03;4985859;28;20389;-85
2022/02/16 08:12:23;;;;;;;0.73;0.30;;;;;;;6.23;100.00;99001.63;4991368;28;20058;-85
2022/02/16 08:14:50;;;;;;;1.50;0.30;;;;;;;6.22;100.00;98985.19;5016169;28;20049;-87
2022/02/16 08:17:19;;;;;;;0.45;0.40;;;;;;;6.22;100.00;98966.13;4961445;28;20060;-86
2022/02/16 08:19:46;;;;;;;0.75;0.30;;;;;;;6.27;100.00;98966.88;4997439;28;20060;-87
2022/02/16 08:22:13;;;;;;;2.15;0.55;;;;;;;6.29;100.00;98955.59;4982497;28;20045;-87
2022/02/16 08:24:43;;;;;;;1.38;0.38;;;;;;;6.34;100.00;98952.06;4975703;28;20099;-86
2022/02/16 08:27:10;;;;;;;0.30;0.30;;;;;;;6.42;100.00;98948.41;4993838;28;20048;-87
2022/02/16 08:29:37;;;;;;;0.63;0.40;;;;;;;6.50;100.00;98944.81;4983445;28;20045;-87
2022/02/16 08:32:04;;;;;;;0.50;0.35;;;;;;;6.54;100.00;98931.72;5000731;28;20037;-88
2022/02/16 08:34:30;;;;;;;0.63;0.30;;;;;;;6.62;100.00;98927.22;5006564;28;20038;-87
2022/02/16 08:36:57;;;;;;;0.68;0.57;;;;;;;6.67;100.00;98921.91;4997779;28;20107;-88
2022/02/16 08:39:29;;;;;;;0.43;0.40;;;;;;;6.73;100.00;98919.19;4993469;28;20053;-87
2022/02/16 08:41:57;;;;;;;0.70;0.70;;;;;;;6.75;100.00;98920.03;4973441;28;20053;-85
2022/02/16 08:44:25;;;;;;;0.88;0.30;;;;;;;6.78;100.00;98909.56;4996633;28;20041;-88
2022/02/16 08:46:53;;;;;;;0.20;0.20;;;;;;;6.83;100.00;98911.19;5011200;28;20049;-87
2022/02/16 08:49:19;;;;;;;0.68;0.57;;;;;;;6.89;100.00;98898.91;4994317;28;20042;-86
2022/02/16 08:51:46;;;;;;;0.10;0.10;;;;;;;6.94;100.00;98888.41;5001181;28;20084;-85
2022/02/16 08:54:13;;;;;;;0.20;0.20;;;;;;;7.00;100.00;98885.69;4978548;28;20065;-87
2022/02/16 08:56:41;;;;;;;0.10;0.10;;;;;;;7.05;100.00;98883.84;5015810;28;20511;-86
2022/02/16 08:59:08;;;;;;;0.30;0.25;;;;;;;7.06;100.00;98887.28;4963332;28;20052;-88
2022/02/16 09:01:34;;;;;;;0.10;0.10;;;;;;;7.08;100.00;98878.53;4999954;28;20045;-86
2022/02/16 09:04:04;;;;;;;0.30;0.30;;;;;;;7.09;100.00;98880.25;4967140;28;20061;-86
2022/02/16 09:06:33;;;;;;;1.35;0.50;;;;;;;7.15;100.00;98868.84;5015452;28;20053;-86
2022/02/16 09:08:59;;;;;;;1.33;0.30;;;;;;;7.23;100.00;98871.25;5015475;28;20060;-87
2022/02/16 09:11:29;;;;;;;0.30;0.20;;;;;;;7.26;100.00;98864.25;4976886;28;20045;-86
2022/02/16 09:16:53;;;;;;;0.90;0.20;;;;;;;7.07;100.00;98876.81;5064774;27;20409;-86
2022/02/16 09:19:20;;;;;;;2.30;0.30;;;;;;;6.98;100.00;98868.41;5075956;28;20048;-88
2022/02/16 09:21:47;;;;;;;0.35;0.30;;;;;;;6.95;100.00;98866.72;5046531;28;20167;-85
2022/02/16 09:24:14;;;;;;;0.40;0.28;;;;;;;6.97;100.00;98861.47;5026290;28;22239;-86
2022/02/16 09:26:41;;;;;;;1.45;0.10;;;;;;;6.99;100.00;98849.28;5047037;28;20049;-87
2022/02/16 09:29:15;;;;;;;1.70;0.30;;;;;;;7.02;100.00;98846.63;5025308;28;20056;-85
2022/02/16 09:31:44;;;;;;;0.20;0.20;;;;;;;7.05;100.00;98842.19;5034790;28;20064;-85
2022/02/16 09:34:11;;;;;;;0.52;0.30;;;;;;;7.11;100.00;98823.81;5023268;28;20126;-86
2022/02/16 09:36:38;;;;;;;0.40;0.20;;;;;;;7.13;100.00;98828.97;5058373;28;20044;-88
2022/02/16 09:39:05;;;;;;;1.40;0.20;;;;;;;7.11;100.00;98821.22;5033628;28;21166;-88
2022/02/16 09:41:33;;;;;;;0.50;0.50;;;;;;;7.18;100.00;98821.91;5065690;28;20053;-87
2022/02/16 09:44:04;;;;;;;0.20;0.20;;;;;;;7.27;100.00;98815.63;5032519;28;20044;-86
2022/02/16 09:46:32;;;;;;;0.10;0.08;;;;;;;7.30;100.00;98815.59;5026238;28;20072;-88
2022/02/16 09:49:00;;;;;;;0.45;0.20;;;;;;;7.29;100.00;98806.91;5061626;28;20048;-89
2022/02/16 09:51:28;;;;;;;0.22;0.10;;;;;;;7.32;100.00;98797.31;5030984;28;20552;-87
2022/02/16 09:53:55;;;;;;;0.10;0.10;;;;;;;7.33;100.00;98797.28;5009072;28;20098;-87
2022/02/16 09:56:24;;;;;;;0.47;0.28;;;;;;;7.34;100.00;98804.19;5028972;28;20075;-88
2022/02/16 09:58:53;;;;;;;0.52;0.20;;;;;;;7.38;100.00;98798.00;5039237;28;20317;-84
2022/02/16 10:01:21;;;;;;;0.25;0.25;;;;;;;7.42;100.00;98794.44;5041269;28;20507;-88
2022/02/16 10:04:09;;;;;;;0.28;0.13;;;;;;;7.47;100.00;98796.91;5027322;28;20064;-86
2022/02/16 10:09:38;;;;;;;0.57;0.10;;;;;;;7.55;100.00;98781.09;5015481;28;20055;-89
2022/02/16 10:12:08;;;;;;;0.13;0.10;;;;;;;7.55;100.00;98786.31;5063735;28;20652;-88
2022/02/16 10:14:39;;;;;;;0.10;0.10;;;;;;;7.57;100.00;98790.59;5035443;28;20053;-87
2022/02/16 10:17:28;;;;;;;0.10;0.10;;;;;;;7.62;100.00;98803.47;5028591;28;20052;-89
2022/02/16 10:20:02;;;;;;;0.30;0.20;;;;;;;7.62;100.00;98785.22;5037079;28;20231;-85
2022/02/16 10:22:46;;;;;;;0.20;0.20;;;;;;;7.62;100.00;98790.44;5046023;28;20052;-85
2022/02/16 10:25:22;;;;;;;1.08;0.17;;;;;;;7.65;100.00;98790.34;5049285;28;20055;-86
2022/02/16 10:28:20;;;;;;;0.77;0.10;;;;;;;7.65;100.00;98781.69;5018875;28;20052;-88
2022/02/16 10:31:02;;;;;;;0.10;0.10;;;;;;;7.67;100.00;98778.16;5038475;28;20099;-85
2022/02/16 10:36:27;;;;;;;0.60;0.20;;;;;;;7.68;100.00;98779.88;5031638;28;20132;-89
2022/02/16 10:41:52;;;;;;;0.65;0.28;;;;;;;7.76;100.00;98764.88;5032724;28;20072;-88
2022/02/16 10:44:31;;;;;;;0.22;0.22;;;;;;;7.84;100.00;98753.41;5028282;28;20517;-87
2022/02/16 10:47:19;;;;;;;0.50;0.40;;;;;;;7.95;100.00;98746.97;5009626;28;20056;-87
2022/02/16 10:52:30;;;;;;;0.38;0.10;;;;;;;8.31;100.00;98725.06;5015560;28;20049;-86
2022/02/16 10:55:02;;;;;;;0.20;0.20;;;;;;;8.49;100.00;98708.03;5016961;28;20049;-86
2022/02/16 10:57:29;;;;;;;0.10;0.10;;;;;;;8.57;100.00;98724.28;5027731;28;20059;-86
2022/02/16 10:59:57;;;;;;;0.10;0.10;;;;;;;8.61;100.00;98717.22;5060252;28;20380;-88
2022/02/16 11:02:25;;;;;;;0.05;0.05;;;;;;;8.60;100.00;98707.69;5032302;28;21311;-86
2022/02/16 11:04:55;;;;;;;1.55;0.00;;;;;;;8.60;100.00;98721.59;5028288;28;20076;-86
2022/02/16 11:07:26;;;;;;;0.50;0.22;;;;;;;8.63;100.00;98722.38;5048559;28;20539;-86
2022/02/16 11:10:03;;;;;;;0.20;0.20;;;;;;;8.63;100.00;98723.25;5011659;28;20045;-88
2022/02/16 11:12:30;;;;;;;0.10;0.10;;;;;;;8.76;100.00;98710.63;5015182;28;20155;-87
2022/02/16 11:14:59;;;;;;;1.55;0.20;;;;;;;8.89;100.00;98716.31;5043688;28;20124;-86
2022/02/16 11:17:30;;;;;;;0.00;0.00;;;;;;;8.98;100.00;98712.53;5040542;28;20053;-87
2022/02/16 11:20:19;;;;;;;0.10;0.03;;;;;;;9.06;100.00;98714.00;5030421;28;20741;-86
2022/02/16 11:22:57;;;;;;;1.65;0.20;;;;;;;9.15;100.00;98709.34;5041402;28;20049;-86
2022/02/16 11:25:36;;;;;;;0.15;0.10;;;;;;;9.21;100.00;98699.56;5015274;28;20108;-86
2022/02/16 11:28:11;;;;;;;0.17;0.10;;;;;;;9.26;100.00;98708.06;5025409;28;20159;-87
2022/02/16 11:30:50;;;;;;;0.13;0.13;;;;;;;9.30;100.00;98701.00;5012684;28;20049;-86
2022/02/16 11:33:25;;;;;;;0.17;0.17;;;;;;;9.37;100.00;98670.28;5042360;28;20079;-88
2022/02/16 11:35:56;;;;;;;0.15;0.15;;;;;;;9.46;100.00;98666.50;5028614;28;20056;-87
2022/02/16 11:38:49;;;;;;;0.03;0.03;;;;;;;9.55;100.00;98679.22;5012778;28;20060;-87
2022/02/16 11:41:29;;;;;;;0.10;0.10;;;;;;;9.63;100.00;98656.28;5022548;28;20041;-87
2022/02/16 11:44:06;;;;;;;0.10;0.10;;;;;;;9.69;100.00;98669.13;5043928;28;20052;-86
2022/02/16 11:46:47;;;;;;;0.10;0.10;;;;;;;9.77;100.00;98669.66;5024307;28;20784;-86
2022/02/16 11:49:29;;;;;;;0.10;0.10;;;;;;;9.83;100.00;98665.13;5012709;28;21720;-86
2022/02/16 11:51:58;;;;;;;0.10;0.10;;;;;;;9.95;100.00;98662.06;5016899;28;20128;-86
2022/02/16 11:54:50;;;;;;;0.10;0.10;;;;;;;10.04;100.00;98676.53;5031774;28;20051;-86
2022/02/16 11:57:38;;;;;;;0.20;0.20;;;;;;;10.08;100.00;98683.34;5032011;28;20049;-86
2022/02/16 12:00:18;;;;;;;0.10;0.10;;;;;;;10.09;100.00;98679.84;5045861;28;20053;-86
2022/02/16 12:02:57;;;;;;;0.00;0.00;;;;;;;10.09;100.00;98667.59;5031565;28;20056;-87
2022/02/16 12:06:01;;;;;;;0.10;0.10;;;;;;;10.07;100.00;98672.03;5023601;28;20163;-87